Time;durP1;ratioP1;P1;durP2;ratioP2;P2;SDS_P1;SDS_P2;PMS_P1;PMS_P2;Temp;Humidity;BMP_temperature;BMP_pressure;BME280_temperature;BME280_humidity;BME280_pressure;Samples;Min_cycle;Max_cycle;Signal;HPM_P1;HPM_P2
2021/01/26 00:02:15;;;;;;;59.63;29.73;;;;;;;-0.30;93.41;99494.28;5062247;28;20476;-59
2021/01/26 00:04:42;;;;;;;59.90;31.07;;;;;;;-0.34;93.51;99498.88;5063377;28;20461;-59
2021/01/26 00:07:09;;;;;;;54.60;29.07;;;;;;;-0.38;93.65;99494.75;5062915;28;20484;-59
2021/01/26 00:09:35;;;;;;;68.13;30.93;;;;;;;-0.35;93.96;99494.53;5066537;28;20491;-59
2021/01/26 00:12:01;;;;;;;46.60;26.80;;;;;;;-0.34;93.84;99493.63;5081916;28;20546;-60
2021/01/26 00:14:27;;;;;;;46.60;26.10;;;;;;;-0.30;93.72;99489.88;5077579;28;21014;-59
2021/01/26 00:16:53;;;;;;;46.27;25.47;;;;;;;-0.32;93.58;99488.28;5062432;28;20504;-59
2021/01/26 00:19:19;;;;;;;46.10;25.33;;;;;;;-0.26;93.64;99486.13;5066182;28;20522;-59
2021/01/26 00:21:45;;;;;;;43.00;27.10;;;;;;;-0.17;93.32;99486.50;5082111;28;20476;-59
2021/01/26 00:24:12;;;;;;;53.27;29.40;;;;;;;-0.17;93.43;99492.63;5082555;28;20509;-59
2021/01/26 00:26:39;;;;;;;49.83;28.67;;;;;;;-0.19;93.70;99489.25;5081606;28;20536;-59
2021/01/26 00:29:07;;;;;;;57.57;30.97;;;;;;;-0.15;93.72;99493.38;5081657;28;20483;-59
2021/01/26 00:31:33;;;;;;;62.80;33.57;;;;;;;-0.20;93.62;99487.53;5070158;28;20504;-59
2021/01/26 00:33:59;;;;;;;58.27;29.60;;;;;;;-0.09;93.55;99489.53;5065447;28;20452;-59
2021/01/26 00:36:26;;;;;;;52.67;28.20;;;;;;;-0.09;93.20;99479.84;5082226;28;20475;-59
2021/01/26 00:38:52;;;;;;;54.37;28.43;;;;;;;-0.07;93.23;99478.00;5080241;28;20463;-59
2021/01/26 00:41:19;;;;;;;59.77;30.83;;;;;;;-0.10;93.28;99482.59;5061774;28;20920;-59
2021/01/26 00:43:45;;;;;;;54.33;30.00;;;;;;;-0.05;93.46;99475.28;5062493;28;20481;-59
2021/01/26 00:46:11;;;;;;;58.30;30.87;;;;;;;-0.05;93.41;99475.28;5062875;28;20522;-59
2021/01/26 00:48:37;;;;;;;58.03;30.53;;;;;;;-0.05;93.34;99464.78;5061588;28;20468;-59
2021/01/26 00:51:04;;;;;;;56.03;32.57;;;;;;;0.00;93.34;99467.97;5079991;28;20495;-59
2021/01/26 00:53:30;;;;;;;58.37;31.23;;;;;;;0.01;93.35;99453.88;5082915;28;20432;-59
2021/01/26 00:55:56;;;;;;;64.13;32.27;;;;;;;-0.01;93.39;99455.75;5064525;28;20488;-59
2021/01/26 00:58:23;;;;;;;59.53;29.80;;;;;;;0.09;93.24;99451.63;5062322;28;20479;-60
2021/01/26 01:00:49;;;;;;;48.80;29.97;;;;;;;0.05;93.05;99436.13;5075820;28;20952;-61
2021/01/26 01:03:16;;;;;;;61.60;32.53;;;;;;;0.10;93.09;99445.44;5081823;28;20661;-60
2021/01/26 01:05:42;;;;;;;43.10;25.47;;;;;;;0.14;92.86;99439.06;5081394;28;20491;-60
2021/01/26 01:08:08;;;;;;;53.63;28.70;;;;;;;0.21;92.93;99443.91;5081133;28;20463;-59
2021/01/26 01:10:38;;;;;;;48.47;27.47;;;;;;;0.17;92.88;99423.09;5081044;28;20530;-60
2021/01/26 01:13:04;;;;;;;49.07;28.20;;;;;;;0.23;92.83;99434.19;5081834;28;20499;-59
2021/01/26 01:15:32;;;;;;;52.03;32.57;;;;;;;0.20;92.88;99435.19;5080753;28;20504;-59
2021/01/26 01:17:58;;;;;;;54.73;29.83;;;;;;;0.22;92.85;99432.47;5080904;28;20444;-61
2021/01/26 01:20:26;;;;;;;52.90;28.70;;;;;;;0.24;92.93;99422.72;5070005;28;20460;-60
2021/01/26 01:22:52;;;;;;;42.80;24.40;;;;;;;0.18;92.72;99421.31;5062683;28;20530;-60
2021/01/26 01:25:19;;;;;;;50.23;26.80;;;;;;;0.14;93.26;99420.66;5070085;28;20470;-60
2021/01/26 01:27:45;;;;;;;37.07;21.97;;;;;;;0.24;92.72;99413.03;5081595;28;20495;-60
2021/01/26 01:30:15;;;;;;;54.17;30.93;;;;;;;0.24;92.74;99412.19;5081160;28;20498;-60
2021/01/26 01:32:42;;;;;;;51.60;29.13;;;;;;;0.24;93.02;99414.81;5081577;28;20428;-60
2021/01/26 01:35:09;;;;;;;53.30;30.57;;;;;;;0.15;93.12;99400.47;5074501;28;20967;-60
2021/01/26 01:37:35;;;;;;;44.20;28.47;;;;;;;0.12;93.19;99404.16;5062353;28;20507;-60
2021/01/26 01:40:01;;;;;;;48.20;27.60;;;;;;;0.09;93.26;99396.44;5069750;28;20835;-60
2021/01/26 01:42:28;;;;;;;50.17;31.10;;;;;;;0.04;93.26;99389.78;5080104;28;20505;-58
2021/01/26 01:44:54;;;;;;;45.17;27.00;;;;;;;0.10;93.40;99386.78;5081353;28;20436;-58
2021/01/26 01:47:24;;;;;;;52.43;28.17;;;;;;;0.10;93.57;99392.03;5080860;28;20590;-58
2021/01/26 01:49:51;;;;;;;43.83;28.47;;;;;;;0.01;93.88;99387.34;5080311;28;20473;-58
2021/01/26 01:52:19;;;;;;;45.13;29.00;;;;;;;-0.14;93.82;99382.09;5081462;28;20495;-60
2021/01/26 01:54:50;;;;;;;40.10;24.67;;;;;;;-0.18;93.96;99382.38;5079248;28;20432;-58
2021/01/26 01:57:21;;;;;;;40.87;25.20;;;;;;;-0.21;94.17;99381.63;5060814;28;20493;-58
2021/01/26 01:59:50;;;;;;;33.67;21.17;;;;;;;-0.36;94.48;99371.19;5065361;28;20448;-59
2021/01/26 02:02:16;;;;;;;36.70;22.90;;;;;;;-0.33;94.33;99366.63;5081170;28;20798;-58
2021/01/26 02:04:43;;;;;;;41.40;25.47;;;;;;;-0.29;94.35;99367.28;5080286;28;20491;-59
2021/01/26 02:07:11;;;;;;;30.90;21.03;;;;;;;12.54;83.23;99364.72;5080404;28;20987;-58
2021/01/26 02:09:39;;;;;;;38.40;24.10;;;;;;;-145.52;100.00;65322.94;5079086;28;20455;-58
2021/01/26 02:12:07;;;;;;;40.10;18.47;;;;;;;-145.52;100.00;65322.94;5064525;28;20491;-59
2021/01/26 02:14:35;;;;;;;38.57;23.87;;;;;;;-145.52;100.00;65322.94;5080606;28;20436;-59
2021/01/26 02:17:07;;;;;;;32.70;20.20;;;;;;;-145.52;100.00;65322.94;5060710;28;20488;-59
2021/01/26 02:20:20;;;;;;;38.07;25.30;;;;;;;15.92;nan;99335.59;5060501;28;20495;-59
2021/01/26 02:23:20;;;;;;;29.60;20.87;;;;;;;1.24;nan;99342.59;5061740;28;20543;-61
2021/01/26 02:26:10;;;;;;;34.53;23.40;;;;;;;0.91;nan;99360.53;5060827;28;20508;-61
2021/01/26 02:28:53;;;;;;;34.97;24.03;;;;;;;0.94;nan;99364.75;5067288;28;20452;-61
2021/01/26 02:31:45;;;;;;;32.83;19.07;;;;;;;0.98;nan;99363.59;5075197;28;20486;-61
2021/01/26 02:34:49;;;;;;;30.20;22.30;;;;;;;0.90;nan;99327.28;5064601;28;20991;-61
2021/01/26 02:37:56;;;;;;;47.27;27.00;;;;;;;1.12;nan;99360.06;5064315;28;20526;-58
2021/01/26 02:40:26;;;;;;;37.57;25.80;;;;;;;1.20;nan;99354.25;5006247;28;20489;-58
2021/01/26 02:43:10;;;;;;;36.10;24.03;;;;;;;1.25;nan;99362.69;5010926;28;20475;-59
2021/01/26 02:45:41;;;;;;;33.87;24.30;;;;;;;1.27;nan;99359.03;5011629;28;20593;-60
2021/01/26 02:48:23;;;;;;;33.20;22.13;;;;;;;1.34;nan;99366.50;5021523;28;20945;-61
2021/01/26 02:50:52;;;;;;;32.17;22.80;;;;;;;1.27;nan;99356.38;5010519;28;20549;-59
2021/01/26 02:53:23;;;;;;;35.63;22.97;;;;;;;1.38;nan;99362.72;5003258;28;20482;-59
2021/01/26 02:55:56;;;;;;;29.07;20.97;;;;;;;1.37;nan;99372.44;5012035;28;20497;-60
2021/01/26 02:58:27;;;;;;;31.90;23.47;;;;;;;1.42;nan;99365.03;5007396;28;20556;-59
2021/01/26 03:00:58;;;;;;;29.67;19.23;;;;;;;1.47;nan;99370.00;5011854;28;21037;-59
2021/01/26 03:03:29;;;;;;;30.60;21.43;;;;;;;1.53;nan;99380.13;5021840;28;20577;-59
2021/01/26 03:05:58;;;;;;;30.53;19.53;;;;;;;1.62;nan;99387.38;5020320;28;20521;-59
2021/01/26 03:08:42;;;;;;;24.90;18.20;;;;;;;1.53;nan;99377.50;5022705;28;20463;-59
2021/01/26 03:11:13;;;;;;;23.40;16.70;;;;;;;1.55;nan;99390.56;5018944;28;20509;-59
2021/01/26 03:13:42;;;;;;;20.53;14.97;;;;;;;1.62;nan;99397.09;5002757;28;20435;-60
2021/01/26 03:16:12;;;;;;;22.47;16.20;;;;;;;1.66;nan;99390.66;5045493;28;20480;-60
2021/01/26 03:18:41;;;;;;;22.63;15.53;;;;;;;1.60;nan;99391.94;5083423;28;20447;-60
2021/01/26 03:21:08;;;;;;;24.40;15.17;;;;;;;1.68;nan;99394.03;5083117;28;20483;-60
2021/01/26 03:23:39;;;;;;;16.30;13.03;;;;;;;1.75;nan;99397.09;5084332;28;20452;-60
2021/01/26 03:26:09;;;;;;;17.23;13.63;;;;;;;1.78;nan;99400.34;5073740;28;20717;-60
2021/01/26 03:28:36;;;;;;;17.93;13.07;;;;;;;1.88;nan;99409.31;5063837;28;20516;-60
2021/01/26 03:31:03;;;;;;;16.73;11.63;;;;;;;1.68;nan;99408.06;5063392;28;20995;-60
2021/01/26 03:33:30;;;;;;;14.67;10.60;;;;;;;1.73;nan;99407.72;5063076;28;20508;-60
2021/01/26 03:35:57;;;;;;;14.60;10.10;;;;;;;1.82;nan;99422.06;5063674;28;20480;-60
2021/01/26 03:38:26;;;;;;;14.73;10.50;;;;;;;1.75;nan;99410.25;5063850;28;20460;-60
2021/01/26 03:40:54;;;;;;;14.07;10.27;;;;;;;1.72;nan;99418.38;5068803;28;20480;-60
2021/01/26 03:43:22;;;;;;;11.97;8.63;;;;;;;1.66;nan;99423.09;5081895;28;20484;-60
2021/01/26 03:45:50;;;;;;;10.40;7.87;;;;;;;1.68;nan;99413.34;5077581;28;20476;-60
2021/01/26 03:48:25;;;;;;;12.97;8.40;;;;;;;1.71;nan;99414.06;5062681;28;20508;-60
2021/01/26 03:51:01;;;;;;;13.60;8.10;;;;;;;1.65;nan;99423.22;5067373;28;20479;-60
2021/01/26 03:54:11;;;;;;;11.70;8.20;;;;;;;1.66;nan;99420.47;5083801;28;20465;-60
2021/01/26 03:57:05;;;;;;;8.60;7.57;;;;;;;1.69;nan;99412.38;5072231;28;20477;-60
2021/01/26 03:59:40;;;;;;;13.87;8.33;;;;;;;1.77;nan;99424.16;5061557;28;21003;-60
2021/01/26 04:02:12;;;;;;;8.50;6.80;;;;;;;1.71;nan;99425.44;5077427;28;20490;-60
2021/01/26 04:04:40;;;;;;;9.70;6.90;;;;;;;1.64;nan;99429.44;5083219;28;20471;-60
2021/01/26 04:07:14;;;;;;;9.83;7.27;;;;;;;1.73;nan;99428.81;5068384;28;20481;-60
2021/01/26 04:09:47;;;;;;;9.20;6.97;;;;;;;1.78;nan;99433.78;5062863;28;20505;-60
2021/01/26 04:12:17;;;;;;;8.70;6.63;;;;;;;1.73;nan;99439.34;5075041;28;20503;-61
2021/01/26 04:14:48;;;;;;;8.80;6.87;;;;;;;1.80;nan;99427.44;5083449;28;20468;-60
2021/01/26 04:17:17;;;;;;;9.10;6.67;;;;;;;1.76;nan;99440.94;5068163;28;20484;-59
2021/01/26 04:19:46;;;;;;;12.37;7.30;;;;;;;1.91;nan;99439.91;5062386;28;20944;-59
2021/01/26 04:22:14;;;;;;;10.40;6.53;;;;;;;1.80;nan;99445.88;5063612;28;20487;-60
2021/01/26 04:24:40;;;;;;;16.07;7.23;;;;;;;1.76;nan;99451.50;5062879;28;20949;-60
2021/01/26 04:27:11;;;;;;;9.70;6.07;;;;;;;1.76;nan;99446.22;5076999;28;20553;-60
2021/01/26 04:29:37;;;;;;;6.20;5.20;;;;;;;1.84;nan;99452.66;5082818;28;20479;-61
2021/01/26 04:32:05;;;;;;;7.37;6.00;;;;;;;1.82;nan;99451.91;5081706;28;20860;-60
2021/01/26 04:34:31;;;;;;;9.37;5.90;;;;;;;1.79;nan;99464.44;5082360;28;20938;-60
2021/01/26 04:36:57;;;;;;;7.40;5.37;;;;;;;1.75;nan;99460.31;5067384;28;20512;-60
2021/01/26 04:39:23;;;;;;;9.70;5.20;;;;;;;1.77;nan;99466.34;5063450;28;20487;-60
2021/01/26 04:41:53;;;;;;;5.97;4.90;;;;;;;1.85;nan;99475.41;5062064;28;20546;-60
2021/01/26 04:44:39;;;;;;;8.83;5.07;;;;;;;1.81;nan;99476.56;5061747;28;20484;-60
2021/01/26 04:47:14;;;;;;;5.20;4.53;;;;;;;1.86;nan;99479.75;5061931;28;20547;-60
2021/01/26 04:49:47;;;;;;;7.77;5.23;;;;;;;1.91;nan;99484.72;5063761;28;20448;-59
2021/01/26 04:52:18;;;;;;;8.63;4.63;;;;;;;1.98;nan;99490.38;5069983;28;20481;-60
2021/01/26 04:54:56;;;;;;;6.83;4.20;;;;;;;1.92;nan;99485.53;5064223;28;20464;-60
2021/01/26 04:57:36;;;;;;;5.10;4.60;;;;;;;2.01;nan;99487.53;5081012;28;20970;-59
2021/01/26 05:00:08;;;;;;;5.53;4.30;;;;;;;1.98;nan;99488.63;5082226;28;20451;-60
2021/01/26 05:02:59;;;;;;;4.70;4.13;;;;;;;2.15;nan;99499.78;5081820;28;20479;-59
2021/01/26 05:05:26;;;;;;;5.93;3.90;;;;;;;2.02;nan;99495.34;5081249;28;20459;-59
2021/01/26 05:07:56;;;;;;;5.83;3.67;;;;;;;2.07;nan;99500.31;5082390;28;20455;-59
2021/01/26 05:10:27;;;;;;;5.67;4.47;;;;;;;2.10;nan;99508.03;5071049;28;20459;-59
2021/01/26 05:12:57;;;;;;;5.20;3.30;;;;;;;2.04;nan;99508.44;5081642;28;20440;-59
2021/01/26 05:15:27;;;;;;;4.47;3.20;;;;;;;2.05;nan;99513.59;5081444;28;20518;-59
2021/01/26 05:17:58;;;;;;;6.57;3.67;;;;;;;2.16;nan;99514.66;5081362;28;20479;-59
2021/01/26 05:20:27;;;;;;;7.93;3.50;;;;;;;2.13;nan;99522.78;5070117;28;20487;-59
2021/01/26 05:22:57;;;;;;;4.63;3.03;;;;;;;2.20;nan;99526.69;5062389;28;20808;-60
2021/01/26 05:25:25;;;;;;;4.60;3.47;;;;;;;2.21;nan;99531.84;5061776;28;20465;-59
2021/01/26 05:27:52;;;;;;;6.10;3.60;;;;;;;2.20;nan;99529.31;5062216;28;20450;-60
2021/01/26 05:30:26;;;;;;;4.13;3.00;;;;;;;2.20;nan;99535.44;5061124;28;20468;-59
2021/01/26 05:32:54;;;;;;;4.67;3.30;;;;;;;2.17;nan;99540.94;5061778;28;20444;-59
2021/01/26 05:35:21;;;;;;;5.40;3.50;;;;;;;2.28;nan;99553.38;5078697;28;20470;-59
2021/01/26 05:37:47;;;;;;;5.33;3.43;;;;;;;2.23;nan;99548.41;5078697;28;20495;-59
2021/01/26 05:40:19;;;;;;;9.97;3.63;;;;;;;2.36;nan;99560.75;5075975;28;20484;-59
2021/01/26 05:42:49;;;;;;;4.30;3.20;;;;;;;2.38;nan;99566.81;5078728;28;20490;-59
2021/01/26 05:45:20;;;;;;;6.93;4.53;;;;;;;2.33;nan;99577.66;5080918;28;20537;-60
2021/01/26 05:47:46;;;;;;;7.10;4.20;;;;;;;2.29;nan;99584.06;5081267;28;20444;-60
2021/01/26 05:50:24;;;;;;;8.03;4.27;;;;;;;2.33;nan;99582.94;5079722;28;20485;-60
2021/01/26 05:52:51;;;;;;;4.47;3.43;;;;;;;2.32;nan;99586.50;5082032;28;20432;-60
2021/01/26 05:55:25;;;;;;;9.40;4.73;;;;;;;2.24;nan;99597.59;5078096;28;20447;-60
2021/01/26 05:57:51;;;;;;;8.40;4.20;;;;;;;2.34;nan;99604.88;5064212;28;20488;-60
2021/01/26 06:00:21;;;;;;;9.30;5.20;;;;;;;2.39;nan;99613.31;5066723;28;20462;-60
2021/01/26 06:02:48;;;;;;;7.13;3.57;;;;;;;2.40;nan;99617.66;5077768;28;20519;-60
2021/01/26 06:05:18;;;;;;;7.53;4.57;;;;;;;2.41;nan;99627.25;5072305;28;20465;-61
2021/01/26 06:08:04;;;;;;;6.40;4.10;;;;;;;2.21;nan;99637.34;5078539;28;20452;-60
2021/01/26 06:10:31;;;;;;;5.30;3.77;;;;;;;2.25;nan;99644.09;5078810;28;20506;-61
2021/01/26 06:12:58;;;;;;;4.90;3.53;;;;;;;2.33;nan;99654.16;5078504;28;20475;-60
2021/01/26 06:15:27;;;;;;;7.03;3.80;;;;;;;2.30;nan;99664.06;5072415;28;20464;-61
2021/01/26 06:18:11;;;;;;;7.10;3.87;;;;;;;2.33;nan;99666.50;5062375;28;20488;-60
2021/01/26 06:20:38;;;;;;;5.47;3.83;;;;;;;2.11;nan;99674.97;5058660;28;20520;-60
2021/01/26 06:23:15;;;;;;;5.33;4.43;;;;;;;2.02;nan;99679.06;5059983;28;20445;-60
2021/01/26 06:25:44;;;;;;;6.07;4.63;;;;;;;1.99;nan;99687.16;5067191;28;20470;-60
2021/01/26 06:28:18;;;;;;;8.50;4.73;;;;;;;1.83;nan;99687.31;5079487;28;20451;-60
2021/01/26 06:30:53;;;;;;;7.63;4.40;;;;;;;1.83;nan;99703.13;5070327;28;20494;-60
2021/01/26 06:33:47;;;;;;;8.57;4.80;;;;;;;1.76;nan;99705.31;5059861;28;20463;-60
2021/01/26 06:36:34;;;;;;;8.53;5.60;;;;;;;1.73;nan;99716.03;5058881;28;20519;-60
2021/01/26 06:39:13;;;;;;;10.97;6.67;;;;;;;1.76;nan;99725.56;5060075;28;20473;-60
2021/01/26 06:42:02;;;;;;;11.40;6.13;;;;;;;1.88;nan;99746.69;5072512;28;20490;-60
2021/01/26 06:44:50;;;;;;;10.03;6.13;;;;;;;1.78;nan;99750.03;5059699;28;20527;-60
2021/01/26 06:47:41;;;;;;;8.90;5.50;;;;;;;1.74;nan;99754.66;5059192;28;20469;-60
2021/01/26 06:50:11;;;;;;;8.30;5.87;;;;;;;1.75;nan;99756.31;5034866;28;20976;-60
2021/01/26 06:52:46;;;;;;;8.57;5.80;;;;;;;1.73;nan;99771.38;5080133;28;20436;-60
2021/01/26 06:55:27;;;;;;;9.70;6.23;;;;;;;1.77;nan;99777.31;5066302;28;20441;-60
2021/01/26 06:58:24;;;;;;;8.63;6.27;;;;;;;1.82;nan;99784.00;5068686;28;20490;-60
2021/01/26 07:01:01;;;;;;;9.60;6.63;;;;;;;1.92;nan;99780.78;5078372;28;20994;-61
2021/01/26 07:03:59;;;;;;;11.23;7.70;;;;;;;1.87;nan;99796.88;5076023;28;20456;-61
2021/01/26 07:06:37;;;;;;;11.27;7.87;;;;;;;1.85;nan;99804.88;5071035;28;20536;-60
2021/01/26 07:09:20;;;;;;;10.20;7.70;;;;;;;1.72;nan;99803.97;5075374;28;20928;-60
2021/01/26 07:12:10;;;;;;;10.40;7.00;;;;;;;1.80;nan;99809.59;5067198;28;20476;-60
2021/01/26 07:14:51;;;;;;;11.00;7.80;;;;;;;1.76;nan;99821.28;5071923;28;20451;-61
2021/01/26 07:17:25;;;;;;;10.90;8.00;;;;;;;1.82;nan;99835.84;5073030;28;20476;-61
2021/01/26 07:20:03;;;;;;;10.53;7.47;;;;;;;1.80;nan;99841.22;5069969;28;20789;-61
2021/01/26 07:23:04;;;;;;;11.10;7.60;;;;;;;1.90;nan;99845.94;5053650;28;20454;-60
2021/01/26 07:25:44;;;;;;;11.77;7.83;;;;;;;1.92;nan;99849.31;5055907;28;20490;-60
2021/01/26 07:28:41;;;;;;;12.40;8.27;;;;;;;1.85;nan;99848.84;5073604;28;20449;-61
2021/01/26 07:31:10;;;;;;;13.27;8.70;;;;;;;1.80;nan;99858.84;5073342;28;20476;-61
2021/01/26 07:33:42;;;;;;;13.93;9.93;;;;;;;1.78;nan;99869.47;5070660;28;20502;-60
2021/01/26 07:36:12;;;;;;;11.67;9.33;;;;;;;1.80;nan;99875.47;5063874;28;20481;-64
2021/01/26 07:38:43;;;;;;;13.77;9.60;;;;;;;1.78;nan;99873.91;5062566;28;21275;-63
2021/01/26 07:41:12;;;;;;;13.40;9.43;;;;;;;1.81;nan;99887.72;5067127;28;20519;-62
2021/01/26 07:43:46;;;;;;;14.67;10.33;;;;;;;1.74;nan;99893.47;5066805;28;20481;-61
2021/01/26 07:46:18;;;;;;;14.00;9.10;;;;;;;1.66;nan;99899.19;5072885;28;20468;-62
2021/01/26 07:48:55;;;;;;;14.83;9.07;;;;;;;1.66;nan;99907.09;5069624;28;20464;-62
2021/01/26 07:51:26;;;;;;;14.13;10.00;;;;;;;1.73;nan;99912.88;5071088;28;20468;-62
2021/01/26 07:53:58;;;;;;;12.93;9.50;;;;;;;1.69;nan;99920.09;5068810;28;20437;-62
2021/01/26 07:56:31;;;;;;;14.10;10.17;;;;;;;1.82;nan;99923.72;5069629;28;20558;-64
2021/01/26 07:58:58;;;;;;;13.90;9.50;;;;;;;1.75;nan;99927.63;5073389;28;20838;-64
2021/01/26 08:01:26;;;;;;;14.73;9.70;;;;;;;1.68;nan;99923.66;5073303;28;20483;-64
2021/01/26 08:03:53;;;;;;;14.80;10.00;;;;;;;1.64;nan;99937.97;5070139;28;20836;-63
2021/01/26 08:06:43;;;;;;;14.83;10.27;;;;;;;1.71;nan;99931.41;5071366;28;20477;-63
2021/01/26 08:09:12;;;;;;;13.37;8.67;;;;;;;1.64;nan;99935.34;5071800;28;20460;-63
2021/01/26 08:11:49;;;;;;;14.90;9.50;;;;;;;1.79;nan;99946.72;5069307;28;20479;-63
2021/01/26 08:14:17;;;;;;;14.50;10.20;;;;;;;1.83;nan;99945.63;5072179;28;20501;-62
2021/01/26 08:16:44;;;;;;;16.20;10.20;;;;;;;1.77;nan;99948.63;5070131;28;20479;-62
2021/01/26 08:19:20;;;;;;;15.97;10.33;;;;;;;1.84;nan;99950.81;5071260;28;20527;-64
2021/01/26 08:21:47;;;;;;;15.50;9.27;;;;;;;1.94;nan;99960.78;5070345;28;20477;-61
2021/01/26 08:24:19;;;;;;;15.77;11.33;;;;;;;1.98;nan;99965.81;5074031;28;20468;-62
2021/01/26 08:26:45;;;;;;;16.90;10.57;;;;;;;1.93;nan;99974.91;5069082;28;20494;-62
2021/01/26 08:29:52;;;;;;;17.30;10.00;;;;;;;1.84;nan;99974.53;5075642;28;20448;-61
2021/01/26 08:32:42;;;;;;;16.50;10.23;;;;;;;1.80;nan;99972.16;5072062;28;21133;-62
2021/01/26 08:35:10;;;;;;;16.20;10.23;;;;;;;1.93;nan;99980.19;5069511;28;20441;-63
2021/01/26 08:37:50;;;;;;;16.90;11.20;;;;;;;1.93;nan;99983.69;5069575;28;20495;-63
2021/01/26 08:40:21;;;;;;;16.13;11.00;;;;;;;1.92;nan;99994.31;5071810;28;20851;-62
2021/01/26 08:43:01;;;;;;;14.40;10.23;;;;;;;1.78;nan;99998.63;5071643;28;20480;-64
2021/01/26 08:45:56;;;;;;;17.57;10.70;;;;;;;1.77;nan;99996.94;5068155;28;20495;-63
2021/01/26 08:48:28;;;;;;;16.40;10.47;;;;;;;1.79;nan;100002.09;5070544;28;20439;-63
2021/01/26 08:51:13;;;;;;;19.53;10.77;;;;;;;1.87;nan;100002.50;5069001;28;20504;-64
2021/01/26 08:53:41;;;;;;;17.20;11.63;;;;;;;1.84;nan;100010.56;5071779;28;20499;-64
2021/01/26 08:56:31;;;;;;;17.27;11.07;;;;;;;1.90;nan;100012.84;5069890;28;20809;-64
2021/01/26 08:58:58;;;;;;;19.90;11.90;;;;;;;1.99;nan;100016.72;5058701;28;20529;-64
2021/01/26 09:01:46;;;;;;;19.17;12.07;;;;;;;1.88;nan;100025.28;5069539;28;20467;-64
2021/01/26 09:04:45;;;;;;;17.83;12.43;;;;;;;1.78;nan;100035.50;5070833;28;20473;-62
2021/01/26 09:07:47;;;;;;;19.53;11.20;;;;;;;1.83;nan;100033.47;5068920;28;20539;-62
2021/01/26 09:10:27;;;;;;;20.10;12.10;;;;;;;1.93;nan;100040.81;5062735;28;20488;-62
2021/01/26 09:13:06;;;;;;;20.47;12.03;;;;;;;1.95;nan;100049.50;5073069;28;20456;-63
2021/01/26 09:15:34;;;;;;;21.23;13.17;;;;;;;1.92;nan;100063.69;5071944;28;20482;-63
2021/01/26 09:18:02;;;;;;;21.80;12.17;;;;;;;1.93;nan;100054.88;5075045;28;20509;-63
2021/01/26 09:20:30;;;;;;;23.50;12.40;;;;;;;1.91;nan;100063.78;5071776;28;20475;-64
2021/01/26 09:23:02;;;;;;;21.10;13.17;;;;;;;2.02;nan;100069.28;5070949;28;20448;-62
2021/01/26 09:25:32;;;;;;;19.67;12.20;;;;;;;2.09;nan;100081.16;5072624;28;20468;-62
2021/01/26 09:28:01;;;;;;;19.63;13.50;;;;;;;2.04;nan;100077.97;5072126;28;20448;-62
2021/01/26 09:30:28;;;;;;;24.83;15.30;;;;;;;2.13;nan;100082.69;5070546;28;20492;-63
2021/01/26 09:33:14;;;;;;;20.70;12.80;;;;;;;2.10;nan;100085.53;5071370;28;20546;-63
2021/01/26 09:35:43;;;;;;;23.67;13.57;;;;;;;2.13;nan;100090.59;5073027;28;20475;-63
2021/01/26 09:38:14;;;;;;;24.20;13.60;;;;;;;2.09;nan;100097.00;5072677;28;20488;-62
2021/01/26 09:40:42;;;;;;;23.90;13.90;;;;;;;2.29;nan;100100.22;5061865;28;20476;-64
2021/01/26 09:43:18;;;;;;;21.47;12.10;;;;;;;2.27;nan;100100.31;5071797;28;20480;-63
2021/01/26 09:45:45;;;;;;;23.90;13.50;;;;;;;2.26;nan;100104.75;5062713;28;20483;-63
2021/01/26 09:48:17;;;;;;;23.27;13.40;;;;;;;2.28;nan;100114.38;5065855;28;20993;-64
2021/01/26 09:50:43;;;;;;;22.90;13.47;;;;;;;2.39;nan;100117.22;5078274;28;20567;-63
2021/01/26 09:53:10;;;;;;;22.03;13.30;;;;;;;2.41;nan;100123.25;5068155;28;20506;-64
2021/01/26 09:55:37;;;;;;;22.63;12.90;;;;;;;2.33;nan;100125.50;5061954;28;20485;-63
2021/01/26 09:58:03;;;;;;;21.37;12.57;;;;;;;2.19;nan;100126.31;5077033;28;20567;-63
2021/01/26 10:00:30;;;;;;;27.60;12.43;;;;;;;2.25;nan;100126.78;5071503;28;21002;-63
2021/01/26 10:02:59;;;;;;;21.50;13.73;;;;;;;2.29;nan;100127.44;5077856;28;20451;-61
2021/01/26 10:05:28;;;;;;;20.50;12.90;;;;;;;2.22;nan;100139.31;5070403;28;20478;-62
2021/01/26 10:08:12;;;;;;;21.77;12.67;;;;;;;2.33;nan;100142.19;5078018;28;20955;-62
2021/01/26 10:10:40;;;;;;;21.73;12.27;;;;;;;2.41;nan;100139.06;5069157;28;20513;-63
2021/01/26 10:13:28;;;;;;;22.90;13.47;;;;;;;2.39;nan;100146.22;5074555;28;20451;-63
2021/01/26 10:15:55;;;;;;;20.90;12.27;;;;;;;2.30;nan;100154.69;5069381;28;20475;-62
2021/01/26 10:18:24;;;;;;;27.10;13.33;;;;;;;2.33;nan;100151.88;5078468;28;20765;-62
2021/01/26 10:20:58;;;;;;;19.50;12.53;;;;;;;2.29;nan;100155.63;5073299;28;20989;-63
2021/01/26 10:23:28;;;;;;;20.60;11.90;;;;;;;2.31;nan;100157.25;5065245;28;20452;-65
2021/01/26 10:26:07;;;;;;;20.93;11.73;;;;;;;2.45;nan;100167.84;5067894;28;20487;-61
2021/01/26 10:28:34;;;;;;;21.93;12.80;;;;;;;2.39;nan;100168.19;5070246;28;20460;-62
2021/01/26 10:31:00;;;;;;;21.40;14.27;;;;;;;2.47;nan;100174.81;5071379;28;20990;-64
2021/01/26 10:33:34;;;;;;;19.60;13.17;;;;;;;2.36;nan;100172.78;5075927;28;20610;-63
2021/01/26 10:36:36;;;;;;;20.50;11.97;;;;;;;2.25;nan;100173.44;5075354;28;20467;-63
2021/01/26 10:39:21;;;;;;;18.23;12.20;;;;;;;2.42;nan;100175.09;5016817;28;20458;-63
2021/01/26 10:41:48;;;;;;;18.67;11.70;;;;;;;2.48;nan;100182.63;5012627;28;20788;-62
2021/01/26 10:44:16;;;;;;;21.93;13.50;;;;;;;2.37;nan;100187.69;5011713;28;20478;-63
2021/01/26 10:46:45;;;;;;;19.80;12.43;;;;;;;2.33;nan;100181.75;5018297;28;20489;-64
2021/01/26 10:49:15;;;;;;;21.03;13.60;;;;;;;2.41;nan;100186.56;5014090;28;20452;-64
2021/01/26 10:51:44;;;;;;;22.43;13.20;;;;;;;2.50;nan;100180.75;5012300;28;21202;-63
2021/01/26 10:54:10;;;;;;;21.90;12.70;;;;;;;2.62;nan;100187.09;5016232;28;20473;-65
2021/01/26 10:56:37;;;;;;;19.70;12.50;;;;;;;2.54;nan;100187.56;5014192;28;21017;-65
2021/01/26 10:59:04;;;;;;;20.17;13.57;;;;;;;2.63;nan;100186.16;5017202;28;20470;-65
2021/01/26 11:01:30;;;;;;;20.90;12.10;;;;;;;2.67;nan;100194.72;5013428;28;20486;-63
2021/01/26 11:03:57;;;;;;;21.93;13.70;;;;;;;2.54;nan;100192.00;5024413;28;20577;-63
2021/01/26 11:06:24;;;;;;;20.70;14.10;;;;;;;2.59;nan;100195.22;5019684;28;20539;-64
2021/01/26 11:08:51;;;;;;;21.40;13.30;;;;;;;2.57;nan;100199.69;5024449;28;20470;-63
2021/01/26 11:11:20;;;;;;;17.00;12.27;;;;;;;2.56;nan;100198.84;5071620;28;20483;-63
2021/01/26 11:13:47;;;;;;;18.70;11.30;;;;;;;2.55;nan;100201.59;5078126;28;20448;-64
2021/01/26 11:16:13;;;;;;;22.47;13.23;;;;;;;2.89;nan;100203.06;5068603;28;20488;-62
2021/01/26 11:18:39;;;;;;;17.07;11.63;;;;;;;2.87;nan;100212.03;5074141;28;20483;-62
2021/01/26 11:21:06;;;;;;;21.37;13.60;;;;;;;2.97;nan;100199.97;5073528;28;20476;-61
2021/01/26 11:23:32;;;;;;;20.57;13.50;;;;;;;2.82;nan;100213.16;5075390;28;20444;-62
2021/01/26 11:26:00;;;;;;;21.03;13.37;;;;;;;2.79;nan;100218.59;5075042;28;20491;-61
2021/01/26 11:28:27;;;;;;;21.30;13.30;;;;;;;2.74;nan;100220.69;5067455;28;20477;-61
2021/01/26 11:30:53;;;;;;;22.07;14.93;;;;;;;2.88;nan;100221.63;5070187;28;20475;-61
2021/01/26 11:33:19;;;;;;;20.13;13.47;;;;;;;3.05;nan;100212.69;5074290;28;20548;-64
2021/01/26 11:35:45;;;;;;;17.83;13.10;;;;;;;3.32;nan;100218.94;5075019;28;20479;-64
2021/01/26 11:38:12;;;;;;;18.97;12.90;;;;;;;3.50;nan;100219.56;5064048;28;20492;-63
2021/01/26 11:40:38;;;;;;;18.77;12.30;;;;;;;3.64;nan;100223.16;5072617;28;20533;-62
2021/01/26 11:43:05;;;;;;;20.53;13.13;;;;;;;3.99;nan;100225.34;5079307;28;20953;-62
2021/01/26 11:45:34;;;;;;;20.80;12.83;;;;;;;4.30;nan;100229.47;5080426;28;21106;-63
2021/01/26 11:48:01;;;;;;;17.20;11.73;;;;;;;4.45;nan;100225.81;5072075;28;20483;-63
2021/01/26 11:50:27;;;;;;;22.03;12.00;;;;;;;4.43;nan;100224.25;5078214;28;21092;-64
2021/01/26 11:52:54;;;;;;;20.17;11.77;;;;;;;4.53;nan;100231.47;5080917;28;20444;-63
2021/01/26 11:55:22;;;;;;;17.40;11.73;;;;;;;4.52;nan;100235.03;5079908;28;20459;-61
2021/01/26 11:57:49;;;;;;;16.60;11.27;;;;;;;4.73;nan;100234.56;5080014;28;20487;-62
2021/01/26 12:00:20;;;;;;;16.23;11.60;;;;;;;5.14;nan;100237.97;5069848;28;20452;-62
2021/01/26 12:02:46;;;;;;;17.30;11.03;;;;;;;6.08;nan;100231.38;5074841;28;20456;-62
2021/01/26 12:05:13;;;;;;;16.80;10.77;;;;;;;6.92;nan;100229.50;5072297;28;20461;-63